Hauptseite
METAR-TAF:

METAR-TAF

Flughäfen :

Flughafen Straßburg

Straßburg, Frankreich

Breite: 48-33N, Länge: 007-38E, Höhe: 153 m

Beobachtung

Neuester Wetterbericht von vor 39 Minuten, um 07:00 UTC
Wind 3 kt aus unterschiedlichen Richtungen
Temperatur 11°C
Luftfeuchtigkeit 71%
Luftdruck 1024 hPa
Sichtweite 10 km oder mehr
keine Wolken unter 1500 m und keine Kumulonimbus oder Gewitterwolken

METAR: LFST 090700Z AUTO VRB03KT CAVOK 11/06 Q1024 NOSIG

Zeit: 09:39 (07:39 UTC)

Prognose

Neuester Wetterbericht von vor 2 Stunden und 39 Minuten, um 05:00 UTC
Gültige Prognose vom 09 um 06 UTC bis 10 um 06 UTC
Wind 3 kt aus unterschiedlichen Richtungen
Sichtweite 10 km oder mehr
keine Wolken unter 1500 m und keine Kumulonimbus oder Gewitterwolken
Zeitweise
vom 09 um 14 UTC bis 09 um 17 UTC
Wind 10 kt aus Nord

TAF: LFST 090500Z 0906/1006 VRB03KT CAVOK TEMPO 0914/0917 36010KT

Wetterbeobachtungen und Prognosen von mehr als 4000 Flughäfen (METAR und TAF Bericht).

Die verfügbaren Stationen werden durch gelbe und rote Markierungen auf der Karte dargestellt.

Führen Sie die Maus auf sie, um den Namen der Station zu sehen.

Darauf klicken, um die Beobachtung von Wetterbeobachtungen und Prognosen zu sehen.

Um die Karte zu ändern : klicken Sie auf den grünen Tasten mit einem schwarzen Kreuz Zum Vergrößern, auf den grünen Button mit einem Gedankenstrich zu verkleinern, oder auf die grünen Pfeile für benachbarte Karten.


METAR-TAF: